createdAt,value
2022-10-03T00:25:41.440Z,102394.84
2022-10-03T00:33:55.445Z,102404.00
2022-10-03T00:36:52.329Z,102406.63
2022-10-03T00:45:07.508Z,102412.56
2022-10-03T00:53:10.319Z,102416.34
2022-10-03T01:18:20.236Z,102438.00
2022-10-03T01:20:59.662Z,102444.56
2022-10-03T01:23:44.124Z,102444.97
2022-10-03T01:26:38.227Z,102457.47
2022-10-03T01:29:28.440Z,102449.41
2022-10-03T01:32:03.945Z,102446.47
2022-10-03T01:34:35.474Z,102449.75
2022-10-03T01:37:12.415Z,102452.19
2022-10-03T01:39:48.612Z,102452.03
2022-10-03T01:42:21.697Z,102455.25
2022-10-03T01:45:05.216Z,102443.72
2022-10-03T01:47:40.599Z,102462.16
2022-10-03T01:50:17.213Z,102453.94
2022-10-03T01:52:54.859Z,102462.47
2022-10-03T01:55:29.687Z,102466.78
2022-10-03T01:58:02.142Z,102459.84
2022-10-03T02:00:41.494Z,102463.72
2022-10-03T02:03:16.372Z,102458.84
2022-10-03T02:06:04.230Z,102466.47
2022-10-03T02:08:47.097Z,102461.16
2022-10-03T02:11:31.218Z,102462.75
2022-10-03T02:14:08.227Z,102461.88
2022-10-03T02:16:44.933Z,102463.00
2022-10-03T02:19:21.347Z,102474.69
2022-10-03T02:21:54.766Z,102469.19
2022-10-03T02:24:39.649Z,102460.97
2022-10-03T02:27:22.035Z,102466.91
2022-10-03T02:30:07.230Z,102473.66
2022-10-03T02:33:00.427Z,102472.06
2022-10-03T02:35:52.533Z,102475.38
2022-10-03T02:38:32.524Z,102474.69
2022-10-03T02:41:32.932Z,102469.63
2022-10-03T02:44:36.173Z,102469.34
2022-10-03T02:47:35.325Z,102481.88
2022-10-03T02:50:37.502Z,102480.56
2022-10-03T02:53:56.506Z,102485.63
2022-10-03T02:56:59.665Z,102480.88
2022-10-03T02:59:58.383Z,102475.38
2022-10-03T03:02:57.403Z,102474.38
2022-10-03T03:05:54.213Z,102466.59
2022-10-03T03:08:50.474Z,102480.44
2022-10-03T03:11:39.630Z,102481.00
2022-10-03T03:14:42.685Z,102485.03
2022-10-03T03:17:26.087Z,102482.44
2022-10-03T03:20:22.888Z,102489.63
2022-10-03T03:23:06.921Z,102486.75
2022-10-03T03:25:59.424Z,102490.75
2022-10-03T03:28:41.382Z,102493.94
2022-10-03T03:31:13.290Z,102495.41
2022-10-03T03:33:55.641Z,102494.81
2022-10-03T03:36:35.029Z,102492.22
2022-10-03T03:39:19.669Z,102498.13
2022-10-03T03:42:13.051Z,102498.84
2022-10-03T03:44:56.595Z,102498.53
2022-10-03T03:47:38.832Z,102494.81
2022-10-03T03:50:30.184Z,102494.97
2022-10-03T03:53:17.761Z,102497.72
2022-10-03T03:56:03.061Z,102504.78
2022-10-03T03:58:40.734Z,102498.47
2022-10-03T04:01:35.780Z,102495.84
2022-10-03T04:04:17.631Z,102500.75
2022-10-03T04:06:57.689Z,102511.56
2022-10-03T04:09:57.158Z,102518.63
2022-10-03T04:12:46.084Z,102520.75
2022-10-03T04:15:31.531Z,102517.59
2022-10-03T04:18:33.437Z,102524.06
2022-10-03T04:21:31.134Z,102522.09
2022-10-03T04:24:38.023Z,102523.38
2022-10-03T04:27:21.941Z,102524.13
2022-10-03T04:30:03.779Z,102530.28
2022-10-03T04:32:57.457Z,102529.16
2022-10-03T04:35:48.164Z,102527.72
2022-10-03T04:38:22.311Z,102524.53
2022-10-03T04:40:58.804Z,102528.72
2022-10-03T04:43:41.707Z,102528.59
2022-10-03T04:46:27.159Z,102532.19
2022-10-03T04:49:04.347Z,102532.63
2022-10-03T04:51:54.614Z,102528.72
2022-10-03T04:54:30.636Z,102526.56
2022-10-03T04:57:06.081Z,102521.09
2022-10-03T04:59:52.788Z,102523.81
2022-10-03T05:02:33.853Z,102519.63
2022-10-03T05:05:17.904Z,102517.44
2022-10-03T05:07:54.499Z,102520.34
2022-10-03T05:10:32.142Z,102516.63
2022-10-03T05:13:08.551Z,102519.63
2022-10-03T05:15:49.886Z,102523.81
2022-10-03T05:18:27.021Z,102517.59
2022-10-03T05:21:05.435Z,102529.25
2022-10-03T05:23:46.226Z,102525.09
2022-10-03T05:26:44.192Z,102532.03
2022-10-03T05:29:18.654Z,102522.94
2022-10-03T05:31:57.104Z,102527.56
2022-10-03T05:34:36.479Z,102540.09
2022-10-03T05:37:25.590Z,102531.00
2022-10-03T05:39:58.575Z,102536.06
2022-10-03T05:42:40.968Z,102542.09
2022-10-03T05:45:28.741Z,102536.50
2022-10-03T05:48:13.190Z,102538.09
2022-10-03T05:51:17.149Z,102539.09
2022-10-03T05:54:17.746Z,102536.50
2022-10-03T05:57:17.199Z,102546.31
2022-10-03T06:00:06.305Z,102551.22
2022-10-03T06:02:58.178Z,102554.53
2022-10-03T06:05:32.853Z,102551.34
2022-10-03T06:08:37.013Z,102549.94
2022-10-03T06:11:20.345Z,102551.78
2022-10-03T06:14:23.928Z,102554.66
2022-10-03T06:17:05.103Z,102556.41
2022-10-03T06:19:49.672Z,102562.47
2022-10-03T06:23:06.210Z,102565.78
2022-10-03T06:26:10.857Z,102571.84
2022-10-03T06:29:10.111Z,102573.41
2022-10-03T06:32:14.847Z,102576.00
2022-10-03T06:35:15.707Z,102576.88
2022-10-03T06:38:10.992Z,102581.22
2022-10-03T06:41:25.356Z,102585.97
2022-10-03T06:44:12.541Z,102587.13
2022-10-03T06:47:16.184Z,102593.75
2022-10-03T06:50:09.275Z,102592.72
2022-10-03T06:53:02.993Z,102588.97
2022-10-03T06:56:03.623Z,102593.16
2022-10-03T06:58:59.139Z,102593.16
2022-10-03T07:02:23.626Z,102594.03
2022-10-03T07:05:25.155Z,102593.47
2022-10-03T07:08:36.622Z,102598.47
2022-10-03T07:11:26.723Z,102593.28
2022-10-03T07:14:27.447Z,102598.34
2022-10-03T07:17:23.054Z,102603.13
2022-10-03T07:20:13.116Z,102607.72
2022-10-03T07:23:07.084Z,102613.63
2022-10-03T07:26:24.777Z,102607.84
2022-10-03T07:29:21.238Z,102620.25
2022-10-03T07:32:03.784Z,102619.97
2022-10-03T07:35:12.119Z,102633.38
2022-10-03T07:38:22.738Z,102630.91
2022-10-03T07:41:15.930Z,102627.47
2022-10-03T07:44:22.199Z,102629.50
2022-10-03T07:47:28.453Z,102636.41
2022-10-03T07:50:31.191Z,102645.63
2022-10-03T07:53:26.728Z,102636.69
2022-10-03T07:56:17.653Z,102640.44
2022-10-03T07:59:04.870Z,102638.84
2022-10-03T08:01:47.260Z,102641.41
2022-10-03T08:04:39.263Z,102642.88
2022-10-03T08:07:26.611Z,102641.00
2022-10-03T08:10:20.159Z,102652.25
2022-10-03T08:13:20.392Z,102654.72
2022-10-03T08:16:08.407Z,102646.47
2022-10-03T08:19:11.021Z,102652.50
2022-10-03T08:21:55.747Z,102654.56
2022-10-03T08:24:49.957Z,102661.00
2022-10-03T08:27:24.939Z,102658.66
2022-10-03T08:30:15.237Z,102660.72
2022-10-03T08:33:00.702Z,102666.91
2022-10-03T08:35:38.802Z,102660.97
2022-10-03T08:38:36.685Z,102665.13
2022-10-03T08:41:42.198Z,102669.47
2022-10-03T08:44:42.414Z,102665.81
2022-10-03T08:47:40.091Z,102665.13
2022-10-03T08:50:50.086Z,102666.69
2022-10-03T08:53:51.941Z,102665.47
2022-10-03T08:56:23.481Z,102660.41
2022-10-03T08:59:14.917Z,102662.78
2022-10-03T09:02:16.171Z,102662.03
2022-10-03T09:05:36.385Z,102664.56
2022-10-03T09:08:31.598Z,102667.34
2022-10-03T09:11:32.886Z,102670.06
2022-10-03T09:14:32.313Z,102673.47
2022-10-03T09:17:31.225Z,102672.84
2022-10-03T09:20:35.417Z,102673.53
2022-10-03T09:23:38.792Z,102672.75
2022-10-03T09:26:30.889Z,102664.78
2022-10-03T09:29:28.913Z,102673.97
2022-10-03T09:32:33.218Z,102668.16
2022-10-03T09:35:26.163Z,102666.66
2022-10-03T09:38:42.322Z,102672.88
2022-10-03T09:41:48.048Z,102673.09
2022-10-03T09:44:45.668Z,102662.66
2022-10-03T09:47:42.694Z,102667.22
2022-10-03T09:51:04.440Z,102668.63
2022-10-03T09:54:12.302Z,102665.25
2022-10-03T09:57:22.728Z,102659.59
2022-10-03T10:00:03.953Z,102656.00
2022-10-03T10:03:09.837Z,102657.25
2022-10-03T10:06:05.355Z,102657.09
2022-10-03T10:09:08.231Z,102647.50
2022-10-03T10:12:12.096Z,102648.94
2022-10-03T10:15:09.966Z,102648.75
2022-10-03T10:18:15.419Z,102648.06
2022-10-03T10:21:18.546Z,102643.13
2022-10-03T10:23:57.549Z,102645.00
2022-10-03T10:27:09.894Z,102639.94
2022-10-03T10:30:03.798Z,102653.38
2022-10-03T10:33:24.261Z,102651.16
2022-10-03T10:36:38.218Z,102644.81
2022-10-03T10:39:49.336Z,102651.31
2022-10-03T10:42:44.052Z,102647.88
2022-10-03T10:45:40.193Z,102642.13
2022-10-03T10:48:53.268Z,102635.75
2022-10-03T10:52:03.239Z,102639.44
2022-10-03T10:55:25.102Z,102642.06
2022-10-03T10:58:24.003Z,102641.00
2022-10-03T11:01:26.051Z,102640.59
2022-10-03T11:04:39.050Z,102636.50
2022-10-03T11:07:36.702Z,102639.47
2022-10-03T11:10:36.510Z,102642.97
2022-10-03T11:13:52.606Z,102640.84
2022-10-03T11:17:11.068Z,102647.41
2022-10-03T11:20:15.501Z,102645.06
2022-10-03T11:23:15.977Z,102639.91
2022-10-03T11:26:40.098Z,102643.41
2022-10-03T11:29:39.465Z,102641.50
2022-10-03T11:32:56.324Z,102641.03
2022-10-03T11:35:54.178Z,102643.59
2022-10-03T11:38:25.705Z,102646.34
2022-10-03T11:41:06.296Z,102641.19
2022-10-03T11:44:05.018Z,102628.41
2022-10-03T11:46:56.674Z,102638.22
2022-10-03T11:49:51.730Z,102633.06
2022-10-03T11:52:29.842Z,102637.75
2022-10-03T11:55:10.230Z,102636.25
2022-10-03T11:57:40.771Z,102632.03
2022-10-03T12:00:17.321Z,102628.22
2022-10-03T12:03:13.696Z,102631.03
2022-10-03T12:06:13.757Z,102626.41
2022-10-03T12:08:56.089Z,102627.47
2022-10-03T12:11:28.261Z,102624.22
2022-10-03T12:14:18.381Z,102618.66
2022-10-03T12:16:58.728Z,102627.09
2022-10-03T12:19:33.094Z,102623.31
2022-10-03T12:22:14.119Z,102624.19
2022-10-03T12:24:45.704Z,102622.63
2022-10-03T12:27:22.995Z,102626.09
2022-10-03T12:29:58.259Z,102622.78
2022-10-03T12:32:33.526Z,102626.84
2022-10-03T12:35:14.830Z,102623.03
2022-10-03T12:37:55.194Z,102625.78
2022-10-03T12:40:27.862Z,102624.16
2022-10-03T12:43:17.517Z,102624.88
2022-10-03T12:45:50.446Z,102622.47
2022-10-03T12:48:42.970Z,102620.75
2022-10-03T12:51:23.236Z,102617.66
2022-10-03T12:54:06.390Z,102611.31
2022-10-03T12:56:46.306Z,102611.16
2022-10-03T12:59:23.294Z,102611.16
2022-10-03T13:02:25.123Z,102613.03
2022-10-03T13:05:28.881Z,102602.84
2022-10-03T13:08:02.693Z,102612.00
2022-10-03T13:10:41.851Z,102602.50
2022-10-03T13:13:25.502Z,102605.09
2022-10-03T13:16:13.603Z,102610.09
2022-10-03T13:18:49.746Z,102605.28
2022-10-03T13:21:44.359Z,102606.47
2022-10-03T13:24:23.309Z,102602.16
2022-10-03T13:27:03.816Z,102599.91
2022-10-03T13:29:39.039Z,102600.97
2022-10-03T13:32:16.336Z,102607.19
2022-10-03T13:35:25.253Z,102604.06
2022-10-03T13:38:31.723Z,102603.38
2022-10-03T13:41:10.138Z,102599.41
2022-10-03T13:43:42.994Z,102596.66
2022-10-03T13:46:16.673Z,102594.25
2022-10-03T13:48:54.200Z,102592.88
2022-10-03T13:51:31.682Z,102598.22
2022-10-03T13:54:04.968Z,102595.63
2022-10-03T13:56:44.802Z,102591.31
2022-10-03T13:59:35.140Z,102592.53
2022-10-03T14:02:22.115Z,102590.81
2022-10-03T14:05:18.706Z,102589.94
2022-10-03T14:07:55.004Z,102591.13
2022-10-03T14:10:37.607Z,102578.72
2022-10-03T14:13:19.666Z,102577.00
2022-10-03T14:15:53.915Z,102576.16
2022-10-03T14:18:33.157Z,102571.34
2022-10-03T14:21:30.681Z,102559.94
2022-10-03T14:24:10.683Z,102562.53
2022-10-03T14:26:46.657Z,102559.06
2022-10-03T14:29:22.638Z,102550.97
2022-10-03T14:31:59.239Z,102548.06
2022-10-03T14:34:40.002Z,102547.22
2022-10-03T14:37:20.042Z,102554.78
2022-10-03T14:39:58.832Z,102547.38
2022-10-03T14:42:44.945Z,102546.34
2022-10-03T14:45:17.792Z,102544.28
2022-10-03T14:47:52.203Z,102536.34
2022-10-03T14:50:23.854Z,102527.03
2022-10-03T14:53:02.093Z,102533.59
2022-10-03T14:55:33.751Z,102531.34
2022-10-03T14:58:10.622Z,102527.72
2022-10-03T15:00:44.098Z,102530.47
2022-10-03T15:03:30.670Z,102529.06
2022-10-03T15:06:19.801Z,102534.63
2022-10-03T15:08:50.904Z,102533.41
2022-10-03T15:11:27.239Z,102538.06
2022-10-03T15:13:57.994Z,102539.25
2022-10-03T15:16:27.254Z,102535.47
2022-10-03T15:19:06.999Z,102529.63
2022-10-03T15:21:36.021Z,102531.19
2022-10-03T15:24:07.260Z,102529.28
2022-10-03T15:26:40.290Z,102525.50
2022-10-03T15:29:15.623Z,102528.78
2022-10-03T15:31:48.441Z,102525.84
2022-10-03T15:34:22.910Z,102527.03
2022-10-03T15:36:56.413Z,102533.25
2022-10-03T15:39:26.810Z,102518.44
2022-10-03T15:42:00.227Z,102527.22
2022-10-03T15:44:33.785Z,102525.84
2022-10-03T15:47:07.334Z,102525.66
2022-10-03T15:49:39.749Z,102516.72
2022-10-03T15:52:17.967Z,102518.09
2022-10-03T15:54:50.060Z,102517.75
2022-10-03T15:57:29.372Z,102512.75
2022-10-03T16:00:03.215Z,102519.28
2022-10-03T16:02:39.407Z,102518.78
2022-10-03T16:05:21.498Z,102508.94
2022-10-03T16:07:59.323Z,102505.31
2022-10-03T16:10:30.957Z,102501.72
2022-10-03T16:13:05.683Z,102505.66
2022-10-03T16:15:50.262Z,102509.63
2022-10-03T16:18:51.856Z,102499.34
2022-10-03T16:21:43.154Z,102500.34
2022-10-03T16:24:22.023Z,102497.59
2022-10-03T16:26:55.724Z,102498.97
2022-10-03T16:29:28.499Z,102494.47
2022-10-03T16:32:03.829Z,102491.75
2022-10-03T16:34:34.346Z,102490.00
2022-10-03T16:37:06.999Z,102481.75
2022-10-03T16:39:37.479Z,102484.63
2022-10-03T16:42:14.461Z,102478.63
2022-10-03T16:44:51.896Z,102487.41
2022-10-03T16:47:35.144Z,102483.28
2022-10-03T16:50:38.867Z,102483.28
2022-10-03T16:53:11.306Z,102486.75
2022-10-03T16:55:47.333Z,102476.88
2022-10-03T16:58:20.503Z,102474.50
2022-10-03T17:01:22.014Z,102471.25
2022-10-03T17:03:48.944Z,102462.31
2022-10-03T17:06:30.534Z,102460.56
2022-10-03T17:09:04.987Z,102459.16
2022-10-03T17:11:38.294Z,102466.03
2022-10-03T17:14:09.873Z,102456.06
2022-10-03T17:16:44.980Z,102465.16
2022-10-03T17:19:20.640Z,102468.78
2022-10-03T17:21:54.643Z,102461.06
2022-10-03T17:24:36.045Z,102455.53
2022-10-03T17:27:12.041Z,102451.91
2022-10-03T17:29:49.026Z,102454.16
2022-10-03T17:32:24.347Z,102458.63
2022-10-03T17:34:59.577Z,102460.88
2022-10-03T17:37:51.956Z,102457.94
2022-10-03T17:40:24.193Z,102464.47
2022-10-03T17:42:56.370Z,102464.81
2022-10-03T17:45:33.957Z,102468.75
2022-10-03T17:48:11.536Z,102475.44
2022-10-03T17:50:52.530Z,102465.81
2022-10-03T17:53:23.065Z,102475.13
2022-10-03T17:55:59.596Z,102473.38
2022-10-03T17:58:31.593Z,102470.28
2022-10-03T18:01:08.319Z,102469.41
2022-10-03T18:03:42.440Z,102474.75
2022-10-03T18:06:36.304Z,102473.69
2022-10-03T18:09:11.511Z,102465.25
2022-10-03T18:11:42.650Z,102470.06
2022-10-03T18:14:20.855Z,102465.09
2022-10-03T18:16:56.782Z,102459.91
2022-10-03T18:19:42.730Z,102457.84
2022-10-03T18:22:17.948Z,102460.94
2022-10-03T18:24:55.161Z,102461.28
2022-10-03T18:28:04.858Z,102459.06
2022-10-03T18:30:38.755Z,102458.16
2022-10-03T18:33:12.457Z,102460.22
2022-10-03T18:35:41.516Z,102458.16
2022-10-03T18:38:15.068Z,102454.03
2022-10-03T18:40:47.523Z,102451.56
2022-10-03T18:43:30.441Z,102451.44
2022-10-03T18:46:07.751Z,102451.78
2022-10-03T18:48:44.194Z,102443.66
2022-10-03T18:51:16.977Z,102451.78
2022-10-03T18:53:51.386Z,102451.25
2022-10-03T18:56:24.250Z,102443.31
2022-10-03T18:59:16.410Z,102444.53
2022-10-03T19:01:52.938Z,102443.28
2022-10-03T19:04:34.737Z,102433.47
2022-10-03T19:07:11.063Z,102434.81
2022-10-03T19:09:45.254Z,102442.50
2022-10-03T19:12:20.680Z,102442.03
2022-10-03T19:15:10.421Z,102443.63
2022-10-03T19:17:50.492Z,102441.16
2022-10-03T19:20:24.454Z,102437.19
2022-10-03T19:23:01.457Z,102434.44
2022-10-03T19:25:31.279Z,102425.81
2022-10-03T19:28:02.953Z,102435.13
2022-10-03T19:30:34.743Z,102434.94
2022-10-03T19:33:07.176Z,102432.53
2022-10-03T19:35:40.973Z,102434.59
2022-10-03T19:38:17.882Z,102438.88
2022-10-03T19:40:55.592Z,102435.75
2022-10-03T19:43:43.222Z,102436.81
2022-10-03T19:46:23.414Z,102437.13
2022-10-03T19:49:04.324Z,102432.09
2022-10-03T19:51:32.684Z,102423.88
2022-10-03T19:54:03.175Z,102428.13
2022-10-03T19:56:35.937Z,102425.41
2022-10-03T19:59:07.003Z,102425.22
2022-10-03T20:01:45.915Z,102430.56
2022-10-03T20:04:19.001Z,102437.25
2022-10-03T20:06:50.738Z,102443.91
2022-10-03T20:09:24.667Z,102435.84
2022-10-03T20:11:56.629Z,102433.09
2022-10-03T20:14:27.741Z,102437.41
2022-10-03T20:17:01.080Z,102421.78
2022-10-03T20:19:33.600Z,102421.94
2022-10-03T20:22:05.070Z,102424.00
2022-10-03T20:24:35.682Z,102425.00
2022-10-03T20:27:19.582Z,102423.66
2022-10-03T20:29:51.237Z,102427.00
2022-10-03T20:32:21.383Z,102432.03
2022-10-03T20:34:55.024Z,102427.72
2022-10-03T20:37:39.782Z,102426.34
2022-10-03T20:40:22.499Z,102423.44
2022-10-03T20:42:54.102Z,102424.31
2022-10-03T20:45:25.868Z,102426.84
2022-10-03T20:48:03.170Z,102422.75
2022-10-03T20:50:34.798Z,102418.75
2022-10-03T20:53:04.798Z,102426.19
2022-10-03T20:55:37.561Z,102422.22
2022-10-03T20:58:17.076Z,102429.50
2022-10-03T21:00:49.340Z,102423.81
2022-10-03T21:03:29.858Z,102415.41
2022-10-03T21:06:00.373Z,102414.19
2022-10-03T21:08:31.156Z,102423.13
2022-10-03T21:11:02.161Z,102430.69
2022-10-03T21:13:34.384Z,102431.63
2022-10-03T21:16:05.983Z,102424.44
2022-10-03T21:18:40.422Z,102420.09
2022-10-03T21:21:13.782Z,102426.47
2022-10-03T21:23:48.085Z,102415.31
2022-10-03T21:26:22.360Z,102414.78
2022-10-03T21:28:50.598Z,102409.78
2022-10-03T21:31:42.578Z,102411.66
2022-10-03T21:34:22.616Z,102409.78
2022-10-03T21:36:57.870Z,102397.69
2022-10-03T21:39:46.077Z,102392.59
2022-10-03T21:42:22.845Z,102393.03
2022-10-03T21:45:19.016Z,102383.19
2022-10-03T21:47:51.587Z,102390.34
2022-10-03T21:50:25.732Z,102384.63
2022-10-03T21:53:17.604Z,102376.44
2022-10-03T21:56:09.106Z,102371.66
2022-10-03T21:58:59.400Z,102356.66
2022-10-03T22:01:35.120Z,102346.19
2022-10-03T22:04:10.357Z,102352.53
2022-10-03T22:06:47.305Z,102348.75
2022-10-03T22:09:16.608Z,102340.38
2022-10-03T22:11:50.522Z,102343.13
2022-10-03T22:14:30.691Z,102335.19
2022-10-03T22:17:07.833Z,102328.97
2022-10-03T22:19:39.932Z,102324.38
2022-10-03T22:22:33.025Z,102326.50
2022-10-03T22:25:11.551Z,102335.59
2022-10-03T22:27:46.807Z,102332.84
2022-10-03T22:30:18.824Z,102333.25
2022-10-03T22:32:59.301Z,102332.25
2022-10-03T22:35:44.771Z,102323.34
2022-10-03T22:38:15.332Z,102324.53
2022-10-03T22:40:44.303Z,102316.69
2022-10-03T22:43:14.432Z,102320.78
2022-10-03T22:45:46.139Z,102318.72
2022-10-03T22:48:19.433Z,102314.97
2022-10-03T22:50:47.787Z,102323.00
2022-10-03T22:53:22.968Z,102325.09
2022-10-03T22:55:55.140Z,102321.88
2022-10-03T22:58:25.298Z,102320.09
2022-10-03T23:00:56.136Z,102321.13
2022-10-03T23:03:28.127Z,102315.84
2022-10-03T23:06:20.764Z,102317.06
2022-10-03T23:09:01.232Z,102315.00
2022-10-03T23:11:31.429Z,102307.44
2022-10-03T23:14:04.818Z,102305.47
2022-10-03T23:16:51.579Z,102300.06
2022-10-03T23:19:40.236Z,102306.19
2022-10-03T23:22:16.677Z,102308.63
2022-10-03T23:24:51.579Z,102303.81
2022-10-03T23:27:47.569Z,102307.06
2022-10-03T23:30:54.961Z,102304.22
2022-10-03T23:33:50.483Z,102303.00
2022-10-03T23:36:23.363Z,102289.41
2022-10-03T23:39:02.792Z,102290.41
2022-10-03T23:41:48.165Z,102281.50
2022-10-03T23:44:35.160Z,102288.84
2022-10-03T23:47:06.153Z,102290.09
2022-10-03T23:49:36.437Z,102296.66
2022-10-03T23:52:05.894Z,102294.41
2022-10-03T23:54:34.411Z,102295.44
2022-10-03T23:57:08.873Z,102290.84
2022-10-03T23:59:39.108Z,102287.94
